Tropical Cyclones
[Index]
Main Index Home Page Stock Weather Photos Extreme Storms Discussion Storm News and Storm Chasing Reports Tropical Cyclones / Hurricanes / Typhoons Weather Data and Links Wild Fires / Bushfires Weather Observation Techniques Weather Picture Catalogue Tornado Pictures and Reports Stock Video Footage and DVDs for sale
Season 1977-1978 Tropical Cyclone 197827 Track Map
Season 1977-1978 Summaries: [BoM-AU] [JTWC-AU] [JTWC-SIO] [JTWC-SPAC] [JTWC-SH]
<<- Previous TC | JTWC 1977-1978 Season | Next TC ->>

click for intensity scale information  Lat/long Grid: Show Hide

 Date Labels: Show Hide

Joint Typhoon Warning Centre Cyclone Data

Name: 197827
Number: 983 / 7827

16 Mar 1978 00:00 UTC to 29 Mar 1978 00:00 UTC

    date/time    lat    long     hPa   cat  kts
1978-03-16 00   13.6    83.8                  25          
1978-03-16 06   13.6    83.9                  30          
1978-03-16 12   13.7    84.0                  30          
1978-03-16 18   13.7    84.2                  30          
1978-03-17 00   13.8    84.4                  30          
1978-03-17 06   13.8    84.5                  35          
1978-03-17 12   13.9    84.6            1     40          
1978-03-17 18   14.0    84.8            1     40          
1978-03-18 00   14.0    85.0            1     45          
1978-03-18 06   13.8    85.3            1     45          
1978-03-18 12   13.6    85.7            1     50          
1978-03-18 18   13.4    86.0            1     50          
1978-03-19 00   13.2    86.5            2     55          
1978-03-19 06   13.1    87.1            2     60          
1978-03-19 12   13.0    87.7            2     65          
1978-03-19 18   13.1    88.3            2     70          
1978-03-20 00   13.4    88.9            3     80          
1978-03-20 06   13.8    89.3            3     85          
1978-03-20 12   14.3    89.6            3     90          
1978-03-20 18   14.8    90.0            4    100          
1978-03-21 00   15.3    90.5            4    105          
1978-03-21 06   15.5    91.0            4    100          
1978-03-21 12   15.6    91.7            3     95          
1978-03-21 18   15.6    92.5            3     85          
1978-03-22 00   15.7    93.3            3     80          
1978-03-22 06   16.0    94.5            3     80          
1978-03-22 12   16.4    95.2            3     80          
1978-03-22 18   17.0    95.1            3     80          
1978-03-23 00   17.4    94.9            3     80          
1978-03-23 06   17.3    94.8            3     75          
1978-03-23 12   17.0    94.6            2     70          
1978-03-23 18   16.8    94.7            2     65          
1978-03-24 00   16.5    94.9            2     60          
1978-03-24 06   16.3    95.0            2     60          
1978-03-24 12   16.0    94.9            2     60          
1978-03-24 18   16.3    94.3            2     55          
1978-03-25 00   17.0    93.7            2     55          
1978-03-25 06   17.5    93.2            2     55          
1978-03-25 12   17.9    92.6            2     55          
1978-03-25 18   18.3    92.0            2     55          
1978-03-26 00   18.6    91.4            2     55          
1978-03-26 06   19.2    90.4            2     55          
1978-03-26 12   19.9    89.6            2     55          
1978-03-26 18   20.8    89.3            1     50          
1978-03-27 00   21.8    89.1            1     50          
1978-03-27 06   23.0    88.8            1     50          
1978-03-27 12   24.2    88.4            1     45          
1978-03-27 18   25.5    87.9            1     45          
1978-03-28 00   27.0    87.4            1     40          
1978-03-28 06   29.0    87.3            1     40          
1978-03-28 12   31.5    87.6                  35          
1978-03-28 18   34.4    88.3                  30          
1978-03-29 00   37.7    89.5                  25          
Winds are 1-min average.

Tropical cyclone tracks developed by Michael Bath using data from the Joint Typhoon Warning Centre Best Tracks and Google Maps.


[Australian Severe Weather index] [Copyright Notice] [Email Contacts] [Search This Site] [Privacy Policy]
Document: tropical_cyclone_197827.htm Updated: 18 September 2016